createdAt,value
2019-05-05T00:02:11.965Z,4.70
2019-05-05T00:04:51.769Z,4.70
2019-05-05T00:07:30.850Z,4.70
2019-05-05T00:10:01.904Z,4.60
2019-05-05T00:12:55.278Z,4.60
2019-05-05T00:15:48.331Z,4.60
2019-05-05T00:18:22.815Z,4.60
2019-05-05T00:20:55.189Z,4.50
2019-05-05T00:23:26.707Z,4.60
2019-05-05T00:25:58.084Z,4.50
2019-05-05T00:28:29.316Z,4.60
2019-05-05T00:31:00.429Z,4.60
2019-05-05T00:33:34.214Z,4.60
2019-05-05T00:36:07.625Z,4.60
2019-05-05T00:38:37.774Z,4.60
2019-05-05T00:41:08.738Z,4.60
2019-05-05T00:43:39.726Z,4.60
2019-05-05T00:46:17.330Z,4.70
2019-05-05T00:48:48.458Z,4.60
2019-05-05T00:51:19.634Z,4.60
2019-05-05T00:53:50.594Z,4.50
2019-05-05T00:56:22.033Z,4.50
2019-05-05T00:58:57.751Z,4.40
2019-05-05T01:01:47.738Z,4.40
2019-05-05T01:04:24.588Z,4.50
2019-05-05T01:06:55.986Z,4.50
2019-05-05T01:09:27.480Z,4.50
2019-05-05T01:11:58.548Z,4.30
2019-05-05T01:14:29.528Z,4.00
2019-05-05T01:17:00.498Z,4.10
2019-05-05T01:19:34.840Z,3.90
2019-05-05T01:22:05.508Z,3.80
2019-05-05T01:24:36.848Z,3.60
2019-05-05T01:27:07.807Z,3.50
2019-05-05T01:29:38.867Z,3.50
2019-05-05T01:32:15.218Z,3.50
2019-05-05T01:34:46.438Z,3.40
2019-05-05T01:37:37.901Z,3.40
2019-05-05T01:40:29.651Z,3.30
2019-05-05T01:43:01.023Z,3.40
2019-05-05T01:45:32.006Z,3.40
2019-05-05T01:48:04.836Z,3.40
2019-05-05T01:50:36.031Z,3.50
2019-05-05T01:53:07.027Z,3.40
2019-05-05T01:55:38.008Z,3.50
2019-05-05T01:58:08.993Z,3.50
2019-05-05T02:00:41.087Z,3.50
2019-05-05T02:03:12.153Z,3.50
2019-05-05T02:05:45.148Z,3.60
2019-05-05T02:08:15.907Z,3.60
2019-05-05T02:10:46.944Z,3.80
2019-05-05T02:13:17.939Z,3.90
2019-05-05T02:15:49.041Z,3.90
2019-05-05T02:18:20.330Z,4.00
2019-05-05T02:21:00.597Z,4.10
2019-05-05T02:23:32.204Z,4.20
2019-05-05T02:26:04.648Z,4.20
2019-05-05T02:28:41.878Z,4.20
2019-05-05T02:31:25.295Z,4.20
2019-05-05T02:33:56.837Z,4.30
2019-05-05T02:36:28.096Z,4.30
2019-05-05T02:38:59.135Z,4.30
2019-05-05T02:41:30.378Z,4.40
2019-05-05T02:44:04.877Z,4.40
2019-05-05T02:46:55.009Z,4.40
2019-05-05T02:49:25.684Z,4.50
2019-05-05T02:51:57.104Z,4.50
2019-05-05T02:54:30.420Z,4.60
2019-05-05T02:57:02.081Z,4.70
2019-05-05T02:59:43.555Z,4.70
2019-05-05T03:02:18.250Z,4.70
2019-05-05T03:04:49.807Z,4.70
2019-05-05T03:07:25.105Z,4.70
2019-05-05T03:09:57.457Z,4.70
2019-05-05T03:12:31.326Z,4.70
2019-05-05T03:15:04.318Z,4.70
2019-05-05T03:17:35.355Z,4.70
2019-05-05T03:20:06.661Z,4.70
2019-05-05T03:22:37.910Z,4.70
2019-05-05T03:25:08.915Z,4.70
2019-05-05T03:27:40.190Z,4.70
2019-05-05T03:30:11.211Z,4.60
2019-05-05T03:32:45.601Z,4.60
2019-05-05T03:35:15.284Z,4.60
2019-05-05T03:37:46.811Z,4.60
2019-05-05T03:40:23.937Z,4.60
2019-05-05T03:43:04.196Z,4.60
2019-05-05T03:45:44.536Z,4.60
2019-05-05T03:48:15.775Z,4.50
2019-05-05T03:50:46.774Z,4.40
2019-05-05T03:53:18.037Z,4.40
2019-05-05T03:55:50.092Z,4.40
2019-05-05T03:58:21.439Z,4.40
2019-05-05T04:01:20.749Z,4.40
2019-05-05T04:03:51.711Z,4.40
2019-05-05T04:06:37.082Z,4.40
2019-05-05T04:09:09.231Z,4.40
2019-05-05T04:11:40.741Z,4.40
2019-05-05T04:14:14.063Z,4.50
2019-05-05T04:16:51.132Z,4.50
2019-05-05T04:19:23.678Z,4.50
2019-05-05T04:21:55.139Z,4.60
2019-05-05T04:24:26.236Z,4.60
2019-05-05T04:26:57.181Z,4.60
2019-05-05T04:29:28.115Z,4.70
2019-05-05T04:31:59.194Z,4.80
2019-05-05T04:34:30.657Z,4.80
2019-05-05T04:37:01.587Z,4.80
2019-05-05T04:39:34.351Z,4.90
2019-05-05T04:42:05.592Z,5.00
2019-05-05T04:44:36.969Z,5.00
2019-05-05T04:47:14.483Z,5.00
2019-05-05T04:49:53.703Z,5.00
2019-05-05T04:52:25.198Z,5.10
2019-05-05T04:54:56.181Z,5.10
2019-05-05T04:57:27.178Z,5.10
2019-05-05T04:59:58.229Z,5.20
2019-05-05T05:02:40.210Z,5.20
2019-05-05T05:05:24.431Z,5.30
2019-05-05T05:07:58.016Z,5.30
2019-05-05T05:10:28.311Z,5.30
2019-05-05T05:12:59.624Z,5.30
2019-05-05T05:15:30.990Z,5.40
2019-05-05T05:18:09.722Z,5.30
2019-05-05T05:20:40.774Z,5.30
2019-05-05T05:23:14.009Z,5.30
2019-05-05T05:25:44.840Z,5.30
2019-05-05T05:28:16.070Z,5.30
2019-05-05T05:30:47.374Z,5.30
2019-05-05T05:33:18.361Z,5.30
2019-05-05T05:35:49.420Z,5.30
2019-05-05T05:38:20.385Z,5.40
2019-05-05T05:41:00.328Z,5.40
2019-05-05T05:43:50.317Z,5.50
2019-05-05T05:46:34.093Z,5.60
2019-05-05T05:49:19.857Z,5.60
2019-05-05T05:51:51.282Z,5.70
2019-05-05T05:54:23.491Z,5.70
2019-05-05T05:56:54.706Z,5.70
2019-05-05T05:59:25.815Z,5.80
2019-05-05T06:02:08.958Z,5.90
2019-05-05T06:04:29.583Z,5.90
2019-05-05T06:07:00.561Z,5.90
2019-05-05T06:09:34.488Z,6.00
2019-05-05T06:12:05.675Z,6.00
2019-05-05T06:14:36.959Z,6.00
2019-05-05T06:17:07.909Z,6.10
2019-05-05T06:19:39.346Z,6.10
2019-05-05T06:22:10.271Z,6.10
2019-05-05T06:24:41.271Z,6.10
2019-05-05T06:27:14.328Z,6.00
2019-05-05T06:29:45.555Z,6.00
2019-05-05T06:32:16.555Z,6.00
2019-05-05T06:34:47.573Z,6.00
2019-05-05T06:37:18.971Z,6.00
2019-05-05T06:39:51.613Z,6.00
2019-05-05T06:42:40.237Z,6.10
2019-05-05T06:45:39.447Z,6.10
2019-05-05T06:48:10.491Z,6.10
2019-05-05T06:50:43.700Z,6.20
2019-05-05T06:53:14.303Z,6.20
2019-05-05T06:55:45.780Z,6.20
2019-05-05T06:58:16.755Z,6.20
2019-05-05T07:00:47.784Z,6.20
2019-05-05T07:03:19.825Z,6.30
2019-05-05T07:05:50.733Z,6.30
2019-05-05T07:08:24.391Z,6.40
2019-05-05T07:10:55.882Z,6.40
2019-05-05T07:13:26.882Z,6.50
2019-05-05T07:15:57.948Z,6.50
2019-05-05T07:18:28.893Z,6.60
2019-05-05T07:20:59.868Z,6.60
2019-05-05T07:23:30.941Z,6.60
2019-05-05T07:26:03.950Z,6.60
2019-05-05T07:28:34.732Z,6.60
2019-05-05T07:31:06.248Z,6.70
2019-05-05T07:33:37.359Z,6.70
2019-05-05T07:36:26.282Z,6.70
2019-05-05T07:38:57.348Z,6.70
2019-05-05T07:41:28.443Z,6.80
2019-05-05T07:43:59.429Z,6.80
2019-05-05T07:46:30.836Z,6.80
2019-05-05T07:49:03.877Z,6.80
2019-05-05T07:51:35.026Z,6.90
2019-05-05T07:54:06.007Z,7.00
2019-05-05T07:56:37.290Z,7.10
2019-05-05T07:59:08.780Z,7.10
2019-05-05T08:01:43.206Z,7.00
2019-05-05T08:04:13.700Z,7.10
2019-05-05T08:06:45.133Z,7.20
2019-05-05T08:09:16.166Z,7.30
2019-05-05T08:11:47.627Z,7.30
2019-05-05T08:14:19.179Z,7.40
2019-05-05T08:17:04.149Z,7.30
2019-05-05T08:19:40.229Z,7.30
2019-05-05T08:22:11.243Z,7.30
2019-05-05T08:24:58.551Z,7.40
2019-05-05T08:27:53.546Z,7.50
2019-05-05T08:30:33.672Z,7.50
2019-05-05T08:33:05.698Z,7.50
2019-05-05T08:35:37.121Z,7.50
2019-05-05T08:38:08.255Z,7.50
2019-05-05T08:40:39.267Z,7.50
2019-05-05T08:43:10.574Z,7.50
2019-05-05T08:45:41.603Z,7.50
2019-05-05T08:48:14.176Z,7.50
2019-05-05T08:50:45.862Z,7.50
2019-05-05T08:53:16.952Z,7.60
2019-05-05T08:55:48.025Z,7.80
2019-05-05T08:58:19.459Z,8.10
2019-05-05T09:00:50.795Z,8.20
2019-05-05T09:03:21.706Z,8.00
2019-05-05T09:05:54.190Z,8.10
2019-05-05T09:08:26.072Z,8.20
2019-05-05T09:10:57.760Z,8.20
2019-05-05T09:13:28.767Z,8.30
2019-05-05T09:15:59.761Z,8.40
2019-05-05T09:18:30.846Z,8.30
2019-05-05T09:21:01.747Z,8.50
2019-05-05T09:23:34.776Z,8.60
2019-05-05T09:26:14.075Z,8.60
2019-05-05T09:29:04.371Z,8.50
2019-05-05T09:31:35.529Z,8.50
2019-05-05T09:34:06.548Z,8.30
2019-05-05T09:36:37.595Z,8.30
2019-05-05T09:39:08.959Z,8.20
2019-05-05T09:41:40.200Z,8.30
2019-05-05T09:44:13.481Z,8.30
2019-05-05T09:46:44.743Z,8.40
2019-05-05T09:49:15.822Z,8.60
2019-05-05T09:51:46.824Z,8.70
2019-05-05T09:54:17.896Z,9.10
2019-05-05T09:56:48.928Z,9.60
2019-05-05T09:59:20.242Z,10.00
2019-05-05T10:01:51.310Z,10.30
2019-05-05T10:04:24.285Z,10.10
2019-05-05T10:06:57.364Z,9.80
2019-05-05T10:09:28.707Z,9.70
2019-05-05T10:12:00.156Z,9.60
2019-05-05T10:14:34.057Z,9.80
2019-05-05T10:17:05.133Z,9.90
2019-05-05T10:19:36.231Z,9.60
2019-05-05T10:22:07.592Z,9.70
2019-05-05T10:24:45.263Z,9.90
2019-05-05T10:27:16.268Z,10.40
2019-05-05T10:29:47.304Z,10.50
2019-05-05T10:32:18.370Z,10.70
2019-05-05T10:35:04.191Z,10.90
2019-05-05T10:37:34.833Z,11.10
2019-05-05T10:40:08.073Z,10.80
2019-05-05T10:42:50.919Z,11.10
2019-05-05T10:45:24.480Z,11.40
2019-05-05T10:47:57.138Z,11.30
2019-05-05T10:50:28.209Z,11.50
2019-05-05T10:52:59.322Z,11.20
2019-05-05T10:55:30.335Z,11.10
2019-05-05T10:58:01.787Z,11.50
2019-05-05T11:00:44.801Z,11.80
2019-05-05T11:03:17.126Z,12.00
2019-05-05T11:05:48.339Z,12.00
2019-05-05T11:08:20.029Z,11.60
2019-05-05T11:10:51.084Z,11.10
2019-05-05T11:13:23.889Z,10.80
2019-05-05T11:15:54.851Z,10.50
2019-05-05T11:18:27.305Z,9.60
2019-05-05T11:20:58.265Z,9.30
2019-05-05T11:23:29.215Z,9.20
2019-05-05T11:26:00.223Z,8.90
2019-05-05T11:28:31.482Z,9.00
2019-05-05T11:31:04.403Z,8.90
2019-05-05T11:34:00.473Z,8.90
2019-05-05T11:36:36.850Z,8.60
2019-05-05T11:39:09.214Z,8.60
2019-05-05T11:41:40.670Z,8.50
2019-05-05T11:44:11.736Z,8.60
2019-05-05T11:46:44.286Z,8.80
2019-05-05T11:49:15.424Z,8.80
2019-05-05T11:51:46.751Z,9.10
2019-05-05T11:54:18.097Z,9.30
2019-05-05T11:56:50.521Z,9.20
2019-05-05T11:59:23.783Z,9.50
2019-05-05T12:01:55.144Z,9.60
2019-05-05T12:04:26.710Z,9.70
2019-05-05T12:06:57.684Z,9.50
2019-05-05T12:09:35.752Z,9.60
2019-05-05T12:12:06.698Z,9.60
2019-05-05T12:14:37.754Z,10.00
2019-05-05T12:17:08.822Z,10.30
2019-05-05T12:19:39.882Z,10.40
2019-05-05T12:22:10.940Z,10.40
2019-05-05T12:24:45.098Z,10.20
2019-05-05T12:27:30.617Z,10.00
2019-05-05T12:30:05.937Z,10.20
2019-05-05T12:32:37.154Z,10.20
2019-05-05T12:35:08.390Z,10.30
2019-05-05T12:37:39.747Z,10.40
2019-05-05T12:40:14.321Z,10.50
2019-05-05T12:42:45.564Z,10.50
2019-05-05T12:45:20.460Z,10.50
2019-05-05T12:48:29.124Z,10.60
2019-05-05T12:51:00.113Z,10.60
2019-05-05T12:53:31.097Z,10.80
2019-05-05T12:56:03.985Z,10.80
2019-05-05T12:58:34.975Z,10.70
2019-05-05T13:01:25.399Z,10.80
2019-05-05T13:03:56.541Z,10.90
2019-05-05T13:06:27.512Z,11.00
2019-05-05T13:08:58.556Z,11.20
2019-05-05T13:11:29.533Z,11.30
2019-05-05T13:14:00.786Z,11.00
2019-05-05T13:16:32.201Z,11.00
2019-05-05T13:19:05.823Z,10.70
2019-05-05T13:22:11.271Z,10.40
2019-05-05T13:24:57.392Z,10.00
2019-05-05T13:27:34.257Z,9.80
2019-05-05T13:30:08.030Z,9.70
2019-05-05T13:32:39.437Z,9.70
2019-05-05T13:35:10.749Z,9.60
2019-05-05T13:37:41.823Z,9.50
2019-05-05T13:40:13.827Z,9.50
2019-05-05T13:42:46.450Z,9.40
2019-05-05T13:45:35.543Z,9.40
2019-05-05T13:48:06.965Z,9.40
2019-05-05T13:50:40.867Z,9.50
2019-05-05T13:53:14.260Z,9.50
2019-05-05T13:55:46.055Z,9.60
2019-05-05T13:58:17.562Z,9.70
2019-05-05T14:00:48.686Z,9.70
2019-05-05T14:03:19.687Z,9.70
2019-05-05T14:05:50.815Z,9.50
2019-05-05T14:08:23.746Z,9.60
2019-05-05T14:10:55.027Z,9.70
2019-05-05T14:13:26.129Z,9.80
2019-05-05T14:15:57.526Z,10.20
2019-05-05T14:18:28.661Z,10.10
2019-05-05T14:21:00.201Z,10.10
2019-05-05T14:23:34.609Z,10.00
2019-05-05T14:26:07.128Z,10.40
2019-05-05T14:28:38.102Z,10.30
2019-05-05T14:31:14.132Z,10.30
2019-05-05T14:33:57.928Z,10.20
2019-05-05T14:36:44.016Z,9.90
2019-05-05T14:39:15.890Z,9.80
2019-05-05T14:41:46.906Z,9.60
2019-05-05T14:44:18.015Z,9.40
2019-05-05T14:46:49.017Z,9.30
2019-05-05T14:49:20.039Z,9.20
2019-05-05T14:51:51.382Z,9.30
2019-05-05T14:54:22.413Z,9.30
2019-05-05T14:56:54.421Z,9.10
2019-05-05T14:59:25.947Z,9.00
2019-05-05T15:01:57.979Z,9.10
2019-05-05T15:04:31.368Z,9.20
2019-05-05T15:07:23.352Z,9.20
2019-05-05T15:09:58.708Z,9.20
2019-05-05T15:12:35.633Z,9.30
2019-05-05T15:15:07.642Z,9.40
2019-05-05T15:17:39.064Z,9.50
2019-05-05T15:20:10.911Z,9.60
2019-05-05T15:22:43.674Z,9.70
2019-05-05T15:25:14.913Z,9.70
2019-05-05T15:27:45.947Z,9.80
2019-05-05T15:30:17.031Z,9.70
2019-05-05T15:32:48.023Z,9.70
2019-05-05T15:35:19.019Z,9.80
2019-05-05T15:37:49.945Z,9.80
2019-05-05T15:40:21.024Z,9.80
2019-05-05T15:42:52.153Z,9.80
2019-05-05T15:45:23.581Z,9.80
2019-05-05T15:47:55.609Z,9.90
2019-05-05T15:50:27.053Z,9.80
2019-05-05T15:52:58.487Z,9.80
2019-05-05T15:55:29.787Z,9.80
2019-05-05T15:58:00.803Z,9.70
2019-05-05T16:00:33.754Z,9.40
2019-05-05T16:03:07.208Z,9.30
2019-05-05T16:05:38.315Z,9.30
2019-05-05T16:08:10.093Z,9.30
2019-05-05T16:10:41.469Z,9.40
2019-05-05T16:13:13.858Z,9.40
2019-05-05T16:16:00.355Z,9.40
2019-05-05T16:19:02.457Z,9.40
2019-05-05T16:21:38.272Z,9.50
2019-05-05T16:24:15.280Z,9.50
2019-05-05T16:26:46.418Z,9.50
2019-05-05T16:29:17.812Z,9.40
2019-05-05T16:31:48.910Z,9.40
2019-05-05T16:34:19.906Z,9.20
2019-05-05T16:36:50.974Z,9.20
2019-05-05T16:39:30.592Z,9.00
2019-05-05T16:42:01.572Z,8.90
2019-05-05T16:44:34.091Z,8.80
2019-05-05T16:47:05.177Z,8.80
2019-05-05T16:49:36.224Z,8.70
2019-05-05T16:52:14.591Z,8.70
2019-05-05T16:55:06.312Z,8.90
2019-05-05T16:57:37.344Z,9.00
2019-05-05T17:00:09.046Z,9.10
2019-05-05T17:02:40.153Z,9.30
2019-05-05T17:05:11.194Z,9.40
2019-05-05T17:07:42.221Z,9.40
2019-05-05T17:10:13.869Z,9.40
2019-05-05T17:12:45.053Z,9.40
2019-05-05T17:15:28.568Z,9.50
2019-05-05T17:18:18.547Z,9.50
2019-05-05T17:20:58.299Z,9.50
2019-05-05T17:23:29.300Z,9.60
2019-05-05T17:26:00.393Z,9.60
2019-05-05T17:28:33.385Z,9.70
2019-05-05T17:31:04.607Z,9.70
2019-05-05T17:33:38.362Z,9.70
2019-05-05T17:36:08.366Z,9.90
2019-05-05T17:38:39.283Z,9.90
2019-05-05T17:41:31.687Z,9.80
2019-05-05T17:44:14.077Z,9.70
2019-05-05T17:46:58.890Z,9.70
2019-05-05T17:49:47.559Z,9.90
2019-05-05T17:52:24.594Z,9.90
2019-05-05T17:54:58.277Z,9.90
2019-05-05T17:57:29.283Z,9.90
2019-05-05T18:00:00.278Z,9.80
2019-05-05T18:02:31.681Z,9.80
2019-05-05T18:05:04.428Z,9.70
2019-05-05T18:07:41.411Z,9.60
2019-05-05T18:10:26.575Z,9.60
2019-05-05T18:13:21.877Z,9.50
2019-05-05T18:15:55.658Z,9.50
2019-05-05T18:18:26.670Z,9.40
2019-05-05T18:21:00.413Z,9.30
2019-05-05T18:23:31.551Z,9.20
2019-05-05T18:26:04.092Z,9.20
2019-05-05T18:28:35.346Z,9.20
2019-05-05T18:31:06.382Z,9.00
2019-05-05T18:33:38.543Z,8.90
2019-05-05T18:36:22.091Z,8.90
2019-05-05T18:38:54.081Z,8.80
2019-05-05T18:41:39.874Z,8.70
2019-05-05T18:44:21.440Z,8.70
2019-05-05T18:47:15.722Z,8.60
2019-05-05T18:49:45.678Z,8.60
2019-05-05T18:52:17.023Z,8.50
2019-05-05T18:54:48.073Z,8.60
2019-05-05T18:57:19.085Z,8.50
2019-05-05T18:59:50.152Z,8.40
2019-05-05T19:02:28.996Z,8.40
2019-05-05T19:05:09.082Z,8.30
2019-05-05T19:07:54.806Z,8.30
2019-05-05T19:10:17.169Z,8.30
2019-05-05T19:12:50.785Z,8.20
2019-05-05T19:15:24.232Z,8.20
2019-05-05T19:17:55.130Z,8.20
2019-05-05T19:20:38.302Z,8.20
2019-05-05T19:23:09.435Z,8.10
2019-05-05T19:25:41.341Z,8.10
2019-05-05T19:28:14.222Z,8.00
2019-05-05T19:30:45.870Z,8.00
2019-05-05T19:33:17.190Z,7.90
2019-05-05T19:35:48.570Z,7.90
2019-05-05T19:38:19.996Z,7.90
2019-05-05T19:40:51.248Z,7.90
2019-05-05T19:43:24.449Z,7.90
2019-05-05T19:45:55.322Z,7.80
2019-05-05T19:48:27.876Z,7.80
2019-05-05T19:51:02.181Z,7.80
2019-05-05T19:53:35.579Z,7.70
2019-05-05T19:56:06.323Z,7.60
2019-05-05T19:58:37.423Z,7.60
2019-05-05T20:01:08.467Z,7.60
2019-05-05T20:03:40.059Z,7.60
2019-05-05T20:06:11.495Z,7.60
2019-05-05T20:08:44.318Z,7.60
2019-05-05T20:11:15.540Z,7.50
2019-05-05T20:13:46.601Z,7.50
2019-05-05T20:16:30.131Z,7.50
2019-05-05T20:19:01.186Z,7.50
2019-05-05T20:21:34.661Z,7.60
2019-05-05T20:24:05.743Z,7.50
2019-05-05T20:26:37.036Z,7.40
2019-05-05T20:29:13.886Z,7.40
2019-05-05T20:31:40.911Z,7.40
2019-05-05T20:34:24.235Z,7.40
2019-05-05T20:37:08.450Z,7.40
2019-05-05T20:39:39.941Z,7.30
2019-05-05T20:42:10.979Z,7.20
2019-05-05T20:44:43.753Z,7.20
2019-05-05T20:47:15.147Z,7.20
2019-05-05T20:49:46.497Z,7.10
2019-05-05T20:52:18.548Z,7.10
2019-05-05T20:54:49.484Z,7.00
2019-05-05T20:57:20.520Z,7.00
2019-05-05T20:59:52.181Z,6.90
2019-05-05T21:02:24.328Z,6.90
2019-05-05T21:04:55.756Z,6.90
2019-05-05T21:07:27.210Z,6.80
2019-05-05T21:09:58.182Z,6.70
2019-05-05T21:12:41.762Z,6.70
2019-05-05T21:15:04.676Z,6.70
2019-05-05T21:17:34.996Z,6.70
2019-05-05T21:20:06.651Z,6.70
2019-05-05T21:22:44.334Z,6.70
2019-05-05T21:25:44.533Z,6.70
2019-05-05T21:28:15.907Z,6.70
2019-05-05T21:30:47.316Z,6.70
2019-05-05T21:33:18.708Z,6.70
2019-05-05T21:35:49.665Z,6.70
2019-05-05T21:38:21.424Z,6.70
2019-05-05T21:40:53.149Z,6.40
2019-05-05T21:43:24.504Z,6.20
2019-05-05T21:45:56.318Z,6.10
2019-05-05T21:48:27.362Z,6.10
2019-05-05T21:51:07.915Z,5.70
2019-05-05T21:53:49.849Z,5.40
2019-05-05T21:56:46.228Z,5.30
2019-05-05T21:59:17.219Z,5.00
2019-05-05T22:01:49.898Z,5.00
2019-05-05T22:04:21.189Z,5.00
2019-05-05T22:06:54.066Z,4.90
2019-05-05T22:09:25.205Z,4.90
2019-05-05T22:11:56.161Z,4.90
2019-05-05T22:14:28.153Z,4.80
2019-05-05T22:16:59.637Z,4.80
2019-05-05T22:19:33.709Z,4.80
2019-05-05T22:22:07.512Z,4.90
2019-05-05T22:24:38.550Z,5.00
2019-05-05T22:27:09.603Z,5.10
2019-05-05T22:29:40.911Z,5.20
2019-05-05T22:32:14.027Z,5.30
2019-05-05T22:34:45.097Z,5.30
2019-05-05T22:37:16.554Z,5.30
2019-05-05T22:39:47.535Z,5.30
2019-05-05T22:42:18.523Z,5.30
2019-05-05T22:44:50.283Z,5.10
2019-05-05T22:47:23.621Z,4.90
2019-05-05T22:49:54.415Z,4.80
2019-05-05T22:52:25.602Z,4.50
2019-05-05T22:54:57.417Z,4.40
2019-05-05T22:57:28.871Z,4.40
2019-05-05T23:00:00.616Z,4.20
2019-05-05T23:02:35.491Z,4.20
2019-05-05T23:05:16.320Z,4.30
2019-05-05T23:07:47.459Z,4.20
2019-05-05T23:10:18.503Z,4.20
2019-05-05T23:12:49.513Z,4.20
2019-05-05T23:15:25.323Z,4.10
2019-05-05T23:18:17.092Z,4.10
2019-05-05T23:21:04.265Z,4.10
2019-05-05T23:23:56.353Z,4.10
2019-05-05T23:26:29.028Z,4.10
2019-05-05T23:29:00.082Z,4.20
2019-05-05T23:31:31.086Z,4.20
2019-05-05T23:34:04.005Z,4.00
2019-05-05T23:36:37.338Z,4.00
2019-05-05T23:39:09.081Z,4.00
2019-05-05T23:41:40.170Z,3.90
2019-05-05T23:44:11.552Z,3.90
2019-05-05T23:46:42.538Z,3.70
2019-05-05T23:49:13.847Z,3.80
2019-05-05T23:51:45.314Z,3.80
2019-05-05T23:54:16.357Z,3.80
2019-05-05T23:56:47.364Z,3.90
2019-05-05T23:59:18.458Z,3.80
